Time;durP1;ratioP1;P1;durP2;ratioP2;P2;SDS_P1;SDS_P2;PMS_P1;PMS_P2;Temp;Humidity;BMP_temperature;BMP_pressure;BME280_temperature;BME280_humidity;BME280_pressure;Samples;Min_cycle;Max_cycle;Signal;HPM_P1;HPM_P2
2022/03/23 00:00:46;;;;;;;1.63;1.48;;;6.80;99.90;;;;;;4948547;28;20039;-90
2022/03/23 00:03:15;;;;;;;1.50;1.42;;;6.70;99.90;;;;;;4956112;28;20101;-90
2022/03/23 00:05:42;;;;;;;3.03;1.67;;;6.80;99.90;;;;;;4973125;28;20038;-90
2022/03/23 00:08:08;;;;;;;1.70;1.60;;;6.80;99.90;;;;;;4969880;28;20046;-89
2022/03/23 00:10:35;;;;;;;0.45;0.45;;;6.70;99.90;;;;;;4970109;28;20046;-89
2022/03/23 00:13:02;;;;;;;1.17;1.05;;;6.70;99.90;;;;;;4969692;28;20049;-90
2022/03/23 00:15:28;;;;;;;0.38;0.38;;;6.70;99.90;;;;;;4971899;28;20565;-89
2022/03/23 00:17:54;;;;;;;0.30;0.30;;;6.70;99.90;;;;;;4970925;28;20043;-90
2022/03/23 00:20:20;;;;;;;0.25;0.25;;;6.60;99.90;;;;;;4970767;28;20042;-90
2022/03/23 00:22:54;;;;;;;0.30;0.30;;;6.50;99.90;;;;;;4971007;28;20107;-89
2022/03/23 00:25:20;;;;;;;0.30;0.30;;;6.50;99.90;;;;;;5001622;28;20049;-90
2022/03/23 00:27:47;;;;;;;0.30;0.30;;;6.50;99.90;;;;;;4972261;28;20046;-88
2022/03/23 00:30:12;;;;;;;0.30;0.30;;;6.50;99.90;;;;;;4977170;28;20094;-89
2022/03/23 00:32:38;;;;;;;2.10;1.77;;;6.50;99.90;;;;;;4971790;28;20126;-89
2022/03/23 00:35:04;;;;;;;2.17;2.08;;;6.50;99.90;;;;;;4969703;28;20386;-90
2022/03/23 00:37:30;;;;;;;0.75;0.75;;;6.50;99.90;;;;;;4971991;28;20203;-89
2022/03/23 00:39:55;;;;;;;4.97;2.97;;;6.50;99.90;;;;;;4978583;28;20041;-90
2022/03/23 00:42:21;;;;;;;1.48;1.38;;;6.50;99.90;;;;;;4976945;28;20097;-90
2022/03/23 00:44:47;;;;;;;1.00;0.95;;;6.40;99.90;;;;;;4972654;28;20045;-90
2022/03/23 00:54:19;;;;;;;0.30;0.30;;;6.30;99.90;;;;;;4953951;29;20504;-90
2022/03/23 00:57:46;;;;;;;;;;;;;;;;;;;;;
2022/03/23 01:01:15;;;;;;;1.58;1.48;;;6.20;99.90;;;;;;4851109;29;20046;-90
2022/03/23 01:07:39;;;;;;;2.30;2.13;;;6.10;99.90;;;;;;4776509;30;20055;-90
2022/03/23 01:10:11;;;;;;;0.30;0.30;;;6.00;99.90;;;;;;4763339;30;20542;-90
2022/03/23 01:12:42;;;;;;;1.55;1.45;;;6.00;99.90;;;;;;4748690;30;20524;-90
2022/03/23 01:15:09;;;;;;;0.98;0.98;;;6.00;99.90;;;;;;4743639;30;20077;-90
2022/03/23 01:17:36;;;;;;;0.55;0.55;;;5.90;99.90;;;;;;4750829;30;20081;-90
2022/03/23 01:20:03;;;;;;;1.08;0.98;;;5.90;99.90;;;;;;4746594;30;20072;-91
2022/03/23 01:22:29;;;;;;;5.55;2.05;;;5.80;99.90;;;;;;4751389;30;20553;-89
2022/03/23 01:24:55;;;;;;;0.80;0.80;;;5.80;99.90;;;;;;4765085;30;20051;-90
2022/03/23 01:27:20;;;;;;;1.52;1.48;;;5.70;99.90;;;;;;4766810;30;20112;-90
2022/03/23 01:29:46;;;;;;;0.40;0.40;;;5.60;99.90;;;;;;4766789;30;20123;-90
2022/03/23 01:32:12;;;;;;;0.30;0.30;;;5.60;99.90;;;;;;4783926;29;20386;-88
2022/03/23 01:34:38;;;;;;;1.35;1.27;;;5.50;99.90;;;;;;4762194;30;20070;-88
2022/03/23 01:37:03;;;;;;;2.00;1.40;;;5.50;99.90;;;;;;4795700;29;20065;-89
2022/03/23 01:39:29;;;;;;;1.83;1.73;;;5.40;99.90;;;;;;4878870;29;20069;-89
2022/03/23 01:41:55;;;;;;;1.02;1.02;;;5.40;99.90;;;;;;4912066;28;20123;-89
2022/03/23 01:44:25;;;;;;;0.82;0.82;;;5.30;99.90;;;;;;4973606;28;20048;-89
2022/03/23 01:47:06;;;;;;;1.98;0.88;;;5.30;99.90;;;;;;4976270;28;20073;-89
2022/03/23 01:49:34;;;;;;;0.30;0.30;;;5.30;99.90;;;;;;4978107;28;20531;-88
2022/03/23 01:52:00;;;;;;;0.60;0.60;;;5.30;99.90;;;;;;4973547;28;20034;-89
2022/03/23 01:54:26;;;;;;;5.53;4.60;;;5.20;99.90;;;;;;4997735;28;20058;-89
2022/03/23 01:56:53;;;;;;;0.75;0.75;;;5.20;99.90;;;;;;4973292;28;20192;-89
2022/03/23 01:59:19;;;;;;;5.38;2.20;;;5.20;99.90;;;;;;4969830;28;20145;-89
2022/03/23 02:01:45;;;;;;;2.08;1.65;;;5.20;99.90;;;;;;4984128;28;20503;-89
2022/03/23 02:04:11;;;;;;;8.43;4.18;;;5.20;99.90;;;;;;4974108;28;20049;-89
2022/03/23 02:06:37;;;;;;;0.30;0.30;;;5.10;99.90;;;;;;4973773;28;20053;-89
2022/03/23 02:09:04;;;;;;;15.70;3.03;;;5.10;99.90;;;;;;4971178;28;20088;-89
2022/03/23 02:11:32;;;;;;;0.60;0.60;;;5.10;99.90;;;;;;4976719;28;20493;-89
2022/03/23 02:13:59;;;;;;;1.75;1.65;;;5.00;99.90;;;;;;4974614;28;20040;-89
2022/03/23 02:16:24;;;;;;;0.93;0.93;;;5.00;99.90;;;;;;4970913;28;20038;-90
2022/03/23 02:18:50;;;;;;;0.20;0.20;;;5.00;99.90;;;;;;4972355;28;20038;-90
2022/03/23 02:21:16;;;;;;;0.60;0.60;;;5.00;99.90;;;;;;4976124;28;20046;-90
2022/03/23 02:23:42;;;;;;;0.50;0.50;;;4.90;99.90;;;;;;4973743;28;20042;-89
2022/03/23 02:26:09;;;;;;;0.30;0.30;;;4.90;99.90;;;;;;4975274;28;20038;-89
2022/03/23 02:28:35;;;;;;;0.77;0.77;;;4.80;99.90;;;;;;4973062;28;20104;-89
2022/03/23 02:31:01;;;;;;;5.00;4.55;;;4.80;99.90;;;;;;4983181;28;20049;-90
2022/03/23 02:33:27;;;;;;;2.25;2.15;;;4.70;99.90;;;;;;4979844;28;20033;-89
2022/03/23 02:35:54;;;;;;;2.05;1.95;;;4.70;99.90;;;;;;4975769;28;20037;-89
2022/03/23 02:38:19;;;;;;;2.05;0.98;;;4.60;99.90;;;;;;4969928;28;20041;-89
2022/03/23 02:40:46;;;;;;;0.30;0.30;;;4.60;99.90;;;;;;4973420;28;20049;-89
2022/03/23 02:43:13;;;;;;;0.30;0.30;;;4.60;99.90;;;;;;4986060;28;20413;-89
2022/03/23 02:45:39;;;;;;;3.58;2.55;;;4.60;99.90;;;;;;4975351;28;20053;-90
2022/03/23 02:48:06;;;;;;;3.60;3.30;;;4.60;99.90;;;;;;4972883;28;20042;-89
2022/03/23 02:50:33;;;;;;;3.20;1.10;;;4.60;99.90;;;;;;4971469;28;20042;-89
2022/03/23 03:04:16;;;;;;;1.83;1.73;;;4.50;99.90;;;;;;4989935;28;20057;-89
2022/03/23 03:06:42;;;;;;;0.38;0.38;;;4.40;99.90;;;;;;4978640;28;20785;-90
2022/03/23 03:09:07;;;;;;;0.43;0.43;;;4.50;99.90;;;;;;4975140;28;20102;-89
2022/03/23 03:11:34;;;;;;;0.70;0.70;;;4.50;99.90;;;;;;4973728;28;20048;-89
2022/03/23 03:14:00;;;;;;;1.58;1.48;;;4.50;99.90;;;;;;4971324;28;20077;-90
2022/03/23 03:16:26;;;;;;;0.75;0.75;;;4.50;99.90;;;;;;4975379;28;20042;-90
2022/03/23 03:19:16;;;;;;;0.77;0.77;;;4.50;99.90;;;;;;4971863;28;20045;-89
2022/03/23 03:21:42;;;;;;;0.65;0.65;;;4.40;99.90;;;;;;4917817;29;20857;-89
2022/03/23 03:24:08;;;;;;;0.40;0.40;;;4.40;99.90;;;;;;4915992;29;20079;-89
2022/03/23 03:26:34;;;;;;;0.98;0.80;;;4.40;99.90;;;;;;4893271;29;20075;-89
2022/03/23 03:29:00;;;;;;;0.30;0.30;;;4.40;99.90;;;;;;4900356;29;20039;-89
2022/03/23 03:31:25;;;;;;;1.02;1.02;;;4.40;99.90;;;;;;4896238;29;20551;-89
2022/03/23 03:33:51;;;;;;;0.90;0.90;;;4.30;99.90;;;;;;4893779;29;20052;-89
2022/03/23 03:36:17;;;;;;;0.30;0.30;;;4.20;99.90;;;;;;4906541;29;20039;-89
2022/03/23 03:38:44;;;;;;;1.08;1.08;;;4.20;99.90;;;;;;4896783;29;20054;-89
2022/03/23 03:41:10;;;;;;;0.38;0.38;;;4.20;99.90;;;;;;4909538;29;20071;-90
2022/03/23 03:43:36;;;;;;;0.47;0.47;;;4.20;99.90;;;;;;4896924;29;20061;-89
2022/03/23 03:46:02;;;;;;;0.30;0.30;;;4.20;99.90;;;;;;4892365;29;20972;-89
2022/03/23 03:48:28;;;;;;;3.60;3.28;;;4.10;99.90;;;;;;4913748;29;20051;-90
2022/03/23 03:50:54;;;;;;;2.88;2.03;;;4.10;99.90;;;;;;4911248;29;20032;-89
2022/03/23 03:53:20;;;;;;;4.68;1.60;;;4.00;99.90;;;;;;4914759;29;20423;-89
2022/03/23 03:55:46;;;;;;;0.40;0.40;;;4.10;99.90;;;;;;4893739;29;20051;-89
2022/03/23 03:58:12;;;;;;;0.40;0.40;;;4.00;99.90;;;;;;4916721;28;20520;-89
2022/03/23 04:00:50;;;;;;;0.47;0.47;;;4.00;99.90;;;;;;4970060;28;20685;-88
2022/03/23 04:03:16;;;;;;;0.45;0.45;;;4.00;99.90;;;;;;4994151;28;20053;-88
2022/03/23 04:05:42;;;;;;;0.30;0.30;;;4.00;99.90;;;;;;4972706;28;20054;-88
2022/03/23 04:08:08;;;;;;;1.00;1.00;;;4.00;99.90;;;;;;4974585;28;20382;-89
2022/03/23 04:10:35;;;;;;;0.52;0.52;;;4.00;99.90;;;;;;4977863;28;20192;-88
2022/03/23 04:13:01;;;;;;;1.15;1.13;;;4.00;99.90;;;;;;4970303;28;20046;-89
2022/03/23 04:15:26;;;;;;;0.47;0.47;;;4.00;99.90;;;;;;4968501;28;20033;-89
2022/03/23 04:17:53;;;;;;;2.63;1.95;;;4.00;99.90;;;;;;4970232;28;20117;-89
2022/03/23 04:20:19;;;;;;;0.47;0.47;;;4.00;99.90;;;;;;4972594;28;20046;-90
2022/03/23 04:22:46;;;;;;;1.88;1.77;;;4.00;99.90;;;;;;4968820;28;20498;-89
2022/03/23 04:25:13;;;;;;;0.20;0.20;;;4.00;99.90;;;;;;4970835;28;20085;-89
2022/03/23 04:27:46;;;;;;;0.32;0.32;;;4.00;99.90;;;;;;4971134;28;20041;-90
2022/03/23 04:30:13;;;;;;;0.50;0.50;;;3.90;99.90;;;;;;4976042;28;20046;-90
2022/03/23 04:32:39;;;;;;;1.10;1.10;;;3.80;99.90;;;;;;4972748;28;20069;-89
2022/03/23 04:35:05;;;;;;;0.70;0.70;;;3.80;99.90;;;;;;4971635;28;20034;-89
2022/03/23 04:37:31;;;;;;;1.75;1.55;;;3.80;99.90;;;;;;4969894;28;20088;-89
2022/03/23 04:39:57;;;;;;;1.02;1.02;;;3.80;99.90;;;;;;4970003;28;20042;-90
2022/03/23 04:42:23;;;;;;;1.88;1.63;;;3.80;99.90;;;;;;4970893;28;20121;-90
2022/03/23 04:44:49;;;;;;;0.95;0.95;;;3.80;99.90;;;;;;4968608;28;20506;-89
2022/03/23 04:47:14;;;;;;;2.90;2.28;;;3.80;99.90;;;;;;4972437;28;20077;-90
2022/03/23 04:49:40;;;;;;;5.57;5.22;;;3.80;99.90;;;;;;4971284;28;20057;-90
2022/03/23 04:52:06;;;;;;;0.47;0.47;;;3.80;99.90;;;;;;4976293;28;20041;-90
2022/03/23 04:54:32;;;;;;;0.40;0.40;;;3.70;99.90;;;;;;4971181;28;20083;-90
2022/03/23 04:56:57;;;;;;;0.63;0.63;;;3.70;99.90;;;;;;4971004;28;20087;-89
2022/03/23 04:59:23;;;;;;;1.25;1.15;;;3.60;99.90;;;;;;4972124;28;20049;-90
2022/03/23 05:01:49;;;;;;;0.75;0.75;;;3.60;99.90;;;;;;4969212;28;20038;-90
2022/03/23 05:04:15;;;;;;;0.95;0.95;;;3.70;99.90;;;;;;4969719;28;20056;-90
2022/03/23 05:06:40;;;;;;;0.70;0.70;;;3.60;99.90;;;;;;4969996;28;20052;-89
2022/03/23 05:09:06;;;;;;;1.67;1.58;;;3.60;99.90;;;;;;4978763;28;20049;-89
2022/03/23 05:11:32;;;;;;;2.53;2.40;;;3.60;99.90;;;;;;4970691;28;20030;-89
2022/03/23 05:13:57;;;;;;;0.35;0.35;;;3.60;99.90;;;;;;4986842;28;20080;-89
2022/03/23 05:16:23;;;;;;;2.45;2.22;;;3.60;99.90;;;;;;4973140;28;20034;-89
2022/03/23 05:18:48;;;;;;;1.55;1.25;;;3.50;99.90;;;;;;4974058;28;20038;-90
2022/03/23 05:21:14;;;;;;;17.65;1.17;;;3.40;99.90;;;;;;4967320;28;20049;-89
2022/03/23 05:23:40;;;;;;;1.77;1.67;;;3.40;99.90;;;;;;4973062;28;20113;-89
2022/03/23 05:26:06;;;;;;;1.58;1.55;;;3.40;99.90;;;;;;4971726;28;20093;-90
2022/03/23 05:28:31;;;;;;;3.35;2.25;;;3.50;99.90;;;;;;4973239;28;20038;-89
2022/03/23 05:30:57;;;;;;;4.18;1.77;;;3.50;99.90;;;;;;4982607;28;20132;-89
2022/03/23 05:33:23;;;;;;;0.43;0.43;;;3.40;99.90;;;;;;4972815;28;20041;-89
2022/03/23 05:35:48;;;;;;;4.30;2.45;;;3.40;99.90;;;;;;4973047;28;20499;-89
2022/03/23 05:38:14;;;;;;;1.05;1.05;;;3.40;99.90;;;;;;4973854;28;20034;-90
2022/03/23 05:40:40;;;;;;;0.80;0.80;;;3.40;99.90;;;;;;4977550;28;20069;-89
2022/03/23 05:43:06;;;;;;;0.98;0.98;;;3.40;99.90;;;;;;4973194;28;20100;-90
2022/03/23 05:45:32;;;;;;;0.40;0.40;;;3.40;99.90;;;;;;4974931;28;20042;-90
2022/03/23 05:47:57;;;;;;;1.00;1.00;;;3.40;99.90;;;;;;4970532;28;20061;-90
2022/03/23 05:50:23;;;;;;;1.35;1.35;;;3.40;99.90;;;;;;4972787;28;20049;-89
2022/03/23 05:52:49;;;;;;;1.23;1.23;;;3.50;99.90;;;;;;4973895;28;20123;-89
2022/03/23 05:55:15;;;;;;;2.47;2.33;;;3.50;99.90;;;;;;4969452;28;20509;-89
2022/03/23 05:57:40;;;;;;;3.38;3.10;;;3.50;99.90;;;;;;4988824;28;20041;-92
2022/03/23 06:00:08;;;;;;;2.03;1.92;;;3.60;99.90;;;;;;4972070;28;20042;-90
2022/03/23 06:02:33;;;;;;;0.73;0.73;;;3.60;99.90;;;;;;4976462;28;20481;-89
2022/03/23 06:05:00;;;;;;;0.40;0.40;;;3.70;99.90;;;;;;4968795;28;20054;-90
2022/03/23 06:07:26;;;;;;;2.78;2.58;;;3.70;99.90;;;;;;4985676;28;20046;-89
2022/03/23 06:09:51;;;;;;;1.50;1.42;;;3.70;99.90;;;;;;4975283;28;20049;-90
2022/03/23 06:12:17;;;;;;;1.33;1.25;;;3.80;99.90;;;;;;4971161;28;20077;-90
2022/03/23 06:14:44;;;;;;;0.70;0.70;;;3.80;99.90;;;;;;4974027;28;20570;-90
2022/03/23 06:17:10;;;;;;;1.10;1.10;;;3.90;99.90;;;;;;4974047;28;20477;-88
2022/03/23 06:19:37;;;;;;;2.67;1.88;;;3.90;99.90;;;;;;4972560;28;20121;-88
2022/03/23 06:22:03;;;;;;;5.07;4.03;;;4.00;99.90;;;;;;4983117;28;20499;-88
2022/03/23 06:24:29;;;;;;;6.93;3.00;;;4.10;99.90;;;;;;4969187;28;20042;-88
2022/03/23 06:26:54;;;;;;;0.40;0.40;;;4.20;99.90;;;;;;4969874;28;20038;-88
2022/03/23 06:29:20;;;;;;;0.50;0.50;;;4.30;99.90;;;;;;4968997;28;20095;-88
2022/03/23 06:31:58;;;;;;;0.70;0.70;;;4.40;99.90;;;;;;4970394;28;20038;-89
2022/03/23 06:34:44;;;;;;;0.40;0.40;;;4.50;99.90;;;;;;4998820;28;20093;-88
2022/03/23 06:37:32;;;;;;;;;;;;;;;;;;;;;
2022/03/23 06:40:34;;;;;;;0.30;0.30;;;4.60;99.90;;;;;;4976190;28;20118;-88
2022/03/23 06:43:00;;;;;;;0.30;0.30;;;4.70;99.90;;;;;;4968423;28;20050;-88
2022/03/23 06:45:42;;;;;;;0.68;0.50;;;4.90;99.90;;;;;;4985318;28;20528;-88
2022/03/23 06:48:55;;;;;;;0.30;0.30;;;4.90;99.90;;;;;;4985496;28;20846;-88
2022/03/23 06:51:22;;;;;;;0.85;0.85;;;5.10;99.90;;;;;;4967546;28;20042;-88
2022/03/23 06:53:47;;;;;;;0.30;0.30;;;5.20;99.90;;;;;;5000392;28;20604;-88
2022/03/23 06:56:13;;;;;;;0.47;0.47;;;5.30;99.90;;;;;;4986143;28;20034;-91
2022/03/23 06:58:39;;;;;;;1.40;1.35;;;5.50;99.90;;;;;;5000508;28;20093;-89
2022/03/23 07:01:04;;;;;;;1.65;1.20;;;5.70;99.90;;;;;;4989640;28;20069;-88
2022/03/23 07:03:30;;;;;;;0.30;0.30;;;5.80;99.90;;;;;;4977480;28;20731;-88
2022/03/23 07:05:56;;;;;;;0.77;0.77;;;5.80;99.90;;;;;;4996795;28;20109;-89
2022/03/23 07:11:06;;;;;;;0.40;0.40;;;6.00;99.90;;;;;;4995965;28;20072;-88
2022/03/23 07:13:32;;;;;;;2.40;2.20;;;6.10;99.90;;;;;;4979551;28;20034;-89
2022/03/23 07:16:09;;;;;;;1.20;1.13;;;6.20;99.90;;;;;;4980191;28;20142;-89
2022/03/23 07:18:34;;;;;;;7.18;5.72;;;6.40;99.90;;;;;;4979646;28;20530;-89
2022/03/23 07:21:02;;;;;;;13.88;6.03;;;6.50;99.90;;;;;;4995059;28;20121;-89
2022/03/23 07:23:28;;;;;;;8.30;6.38;;;6.70;99.90;;;;;;4979581;28;20100;-89
2022/03/23 07:25:53;;;;;;;5.93;5.18;;;6.80;99.90;;;;;;4977552;28;20497;-88
2022/03/23 07:28:19;;;;;;;17.63;9.90;;;7.00;99.90;;;;;;4979546;28;20042;-88
2022/03/23 07:30:45;;;;;;;20.55;6.18;;;7.20;99.90;;;;;;4979329;28;20038;-88
2022/03/23 07:33:11;;;;;;;18.05;11.38;;;7.40;99.90;;;;;;4975850;28;20490;-88
2022/03/23 07:35:36;;;;;;;2.28;2.17;;;7.60;99.90;;;;;;4989233;28;20128;-88
2022/03/23 07:38:02;;;;;;;27.05;8.90;;;7.80;99.90;;;;;;4979202;28;20038;-89
2022/03/23 07:40:28;;;;;;;6.88;4.60;;;7.90;99.90;;;;;;4979038;28;20057;-88
2022/03/23 07:42:53;;;;;;;11.50;5.55;;;8.10;99.90;;;;;;4966877;28;20054;-89
2022/03/23 07:45:19;;;;;;;9.32;6.30;;;8.30;99.90;;;;;;4979071;28;20053;-89
2022/03/23 07:47:45;;;;;;;1.30;1.25;;;8.50;99.90;;;;;;4979928;28;20442;-92
2022/03/23 07:50:17;;;;;;;3.10;2.30;;;8.70;99.90;;;;;;4997047;28;20474;-93
2022/03/23 07:52:42;;;;;;;11.43;9.23;;;8.80;99.90;;;;;;4980894;28;20046;-92
2022/03/23 07:55:08;;;;;;;84.10;9.98;;;9.00;99.90;;;;;;4980612;28;20103;-92
2022/03/23 07:57:34;;;;;;;134.07;7.70;;;9.20;99.90;;;;;;4979262;28;20105;-93
2022/03/23 08:00:03;;;;;;;10.13;7.15;;;9.30;99.90;;;;;;4996471;28;20069;-90
2022/03/23 08:02:29;;;;;;;1.50;1.40;;;9.50;99.90;;;;;;4977674;28;20449;-89
2022/03/23 08:04:54;;;;;;;9.02;8.18;;;9.60;99.90;;;;;;4993271;28;20058;-87
2022/03/23 08:07:27;;;;;;;1.10;1.10;;;9.80;99.90;;;;;;4975187;28;20049;-88
2022/03/23 08:09:52;;;;;;;4.82;2.97;;;10.00;99.90;;;;;;4989845;28;20046;-88
2022/03/23 08:12:18;;;;;;;2.28;2.17;;;10.20;99.90;;;;;;4974723;28;20060;-88
2022/03/23 08:14:50;;;;;;;9.32;7.68;;;10.40;99.90;;;;;;4962832;28;20034;-88
2022/03/23 08:17:16;;;;;;;3.53;3.22;;;10.60;99.90;;;;;;4975661;28;20650;-88
2022/03/23 08:20:32;;;;;;;19.77;9.98;;;10.70;99.90;;;;;;4973240;28;20463;-88
2022/03/23 08:22:36;;;;;;;10.35;7.13;;;10.90;99.90;;;;;;4983183;28;20439;-88
2022/03/23 08:25:02;;;;;;;0.85;0.85;;;11.10;99.90;;;;;;4991449;28;20038;-88
2022/03/23 08:27:28;;;;;;;7.07;4.53;;;11.30;99.90;;;;;;4975835;28;20564;-88
2022/03/23 08:29:54;;;;;;;1.75;1.65;;;11.50;99.90;;;;;;4984263;28;20096;-88
2022/03/23 08:32:22;;;;;;;5.68;4.03;;;11.70;99.90;;;;;;4975899;28;20379;-88
2022/03/23 08:34:49;;;;;;;4.95;4.55;;;12.10;99.90;;;;;;4975800;28;20127;-88
2022/03/23 08:37:15;;;;;;;7.88;5.25;;;12.40;99.90;;;;;;4991969;28;20263;-88
2022/03/23 08:39:44;;;;;;;0.40;0.40;;;12.90;99.90;;;;;;4975959;28;20571;-88
2022/03/23 08:42:10;;;;;;;3.17;2.88;;;13.30;99.90;;;;;;4991550;28;20081;-88
2022/03/23 08:44:35;;;;;;;1.02;0.98;;;13.30;99.90;;;;;;4974987;28;20129;-89
2022/03/23 08:47:02;;;;;;;1.95;1.85;;;13.30;99.90;;;;;;4992226;28;20056;-88
2022/03/23 08:49:27;;;;;;;5.20;4.70;;;13.40;99.90;;;;;;4972242;28;20038;-88
2022/03/23 08:52:05;;;;;;;1.75;1.65;;;13.60;99.90;;;;;;4967813;28;20049;-88
2022/03/23 08:54:31;;;;;;;5.82;4.15;;;13.70;99.90;;;;;;4970889;28;20053;-88
2022/03/23 08:56:57;;;;;;;3.20;2.92;;;14.10;99.90;;;;;;4989675;28;20125;-88
2022/03/23 08:59:23;;;;;;;10.20;6.32;;;14.70;99.90;;;;;;4977783;28;20041;-90
2022/03/23 09:01:49;;;;;;;10.27;6.40;;;15.40;99.90;;;;;;4979199;28;20461;-89
2022/03/23 09:04:15;;;;;;;10.55;4.43;;;16.00;99.90;;;;;;4978711;28;20631;-89
2022/03/23 09:06:41;;;;;;;5.93;3.85;;;16.80;97.50;;;;;;4995622;28;20117;-89
2022/03/23 09:09:06;;;;;;;4.38;3.38;;;17.40;96.70;;;;;;5012416;28;20061;-88
2022/03/23 09:11:32;;;;;;;3.38;3.05;;;17.90;96.00;;;;;;5002338;28;20115;-89
2022/03/23 09:13:58;;;;;;;4.95;2.70;;;18.40;81.50;;;;;;4996028;28;20092;-89
2022/03/23 09:16:24;;;;;;;3.10;2.90;;;18.70;82.60;;;;;;4987580;28;20068;-90
2022/03/23 09:18:50;;;;;;;6.88;4.72;;;18.90;80.60;;;;;;4996489;28;20056;-89
2022/03/23 09:21:16;;;;;;;8.05;5.32;;;19.10;78.80;;;;;;4981073;28;20045;-90
2022/03/23 09:23:43;;;;;;;6.72;4.10;;;19.30;72.90;;;;;;4981565;28;20654;-89
2022/03/23 09:26:10;;;;;;;22.00;12.13;;;19.50;69.00;;;;;;4978870;28;20045;-89
2022/03/23 09:28:36;;;;;;;6.72;5.35;;;19.40;62.20;;;;;;4988799;28;20080;-88
2022/03/23 09:31:02;;;;;;;6.30;3.55;;;19.30;63.80;;;;;;4994547;28;20553;-89
2022/03/23 09:33:34;;;;;;;8.40;4.93;;;19.20;60.60;;;;;;4978330;28;20121;-90
2022/03/23 09:36:03;;;;;;;5.55;2.85;;;19.30;61.70;;;;;;4978434;28;20116;-89
2022/03/23 09:38:29;;;;;;;11.88;6.93;;;19.50;62.00;;;;;;4980909;28;20087;-89
2022/03/23 09:40:56;;;;;;;17.90;9.82;;;19.80;58.20;;;;;;4989927;28;20448;-89
2022/03/23 09:43:24;;;;;;;9.90;6.63;;;19.60;52.20;;;;;;4988527;28;20505;-90
2022/03/23 09:45:51;;;;;;;18.05;8.25;;;19.50;53.10;;;;;;4986520;28;20115;-89
2022/03/23 09:48:22;;;;;;;8.77;5.15;;;19.40;51.70;;;;;;4971998;28;20576;-88
2022/03/23 09:50:50;;;;;;;11.82;6.75;;;19.40;53.00;;;;;;4985660;28;20121;-89
2022/03/23 09:53:17;;;;;;;16.92;10.10;;;19.30;52.80;;;;;;4987255;28;20050;-90
2022/03/23 09:55:43;;;;;;;10.40;6.93;;;19.40;49.20;;;;;;5007544;28;20121;-88
2022/03/23 09:58:10;;;;;;;26.60;7.22;;;19.30;49.80;;;;;;4989456;28;20087;-89
2022/03/23 10:00:42;;;;;;;5.88;3.80;;;19.10;50.90;;;;;;4975183;28;20042;-89
2022/03/23 10:03:17;;;;;;;6.38;4.45;;;19.20;51.70;;;;;;4977702;28;20468;-89
2022/03/23 10:06:27;;;;;;;11.50;7.03;;;19.30;52.50;;;;;;4984371;28;20069;-89
2022/03/23 10:09:24;;;;;;;13.50;8.55;;;19.50;50.20;;;;;;4990508;28;20049;-89
2022/03/23 10:12:27;;;;;;;11.52;6.20;;;19.40;46.90;;;;;;4988989;28;20459;-89
2022/03/23 10:15:31;;;;;;;12.18;7.25;;;19.30;47.30;;;;;;4970436;28;20397;-89
2022/03/23 10:18:02;;;;;;;2.10;1.83;;;19.30;48.50;;;;;;4987772;28;20076;-90
2022/03/23 10:20:29;;;;;;;11.05;7.28;;;19.30;48.00;;;;;;4969558;28;20383;-90
2022/03/23 10:22:58;;;;;;;1.55;1.45;;;19.40;49.20;;;;;;4968141;28;20038;-89
2022/03/23 10:25:44;;;;;;;5.65;3.53;;;19.40;49.70;;;;;;4978445;28;20502;-89
2022/03/23 10:28:37;;;;;;;10.88;5.75;;;19.40;49.80;;;;;;4972427;28;20085;-89
2022/03/23 10:31:28;;;;;;;8.23;4.82;;;19.50;50.70;;;;;;4994879;28;20481;-90
2022/03/23 10:34:12;;;;;;;6.65;4.00;;;19.60;51.40;;;;;;4994125;28;20057;-90
2022/03/23 10:36:43;;;;;;;2.70;2.50;;;19.60;47.00;;;;;;4979379;28;20053;-90
2022/03/23 10:39:12;;;;;;;3.38;3.08;;;19.70;50.20;;;;;;4975455;28;20132;-91
2022/03/23 10:41:55;;;;;;;7.20;4.53;;;19.70;47.20;;;;;;4974935;28;20710;-90
2022/03/23 10:44:21;;;;;;;12.18;6.05;;;19.80;48.10;;;;;;4992176;28;20045;-90
2022/03/23 10:46:47;;;;;;;6.32;4.18;;;19.80;44.60;;;;;;4973285;28;20821;-90
2022/03/23 10:49:15;;;;;;;4.15;1.67;;;19.60;46.00;;;;;;4965673;28;20049;-90
2022/03/23 10:51:43;;;;;;;3.28;2.80;;;19.60;46.50;;;;;;4972204;28;20069;-88
2022/03/23 10:54:35;;;;;;;6.28;2.38;;;19.70;46.20;;;;;;4985371;28;20044;-89
2022/03/23 10:57:10;;;;;;;1.98;1.80;;;19.70;46.90;;;;;;4985052;28;20073;-90
2022/03/23 10:59:50;;;;;;;9.93;4.38;;;19.80;46.10;;;;;;4971177;28;20060;-89
2022/03/23 11:02:37;;;;;;;4.68;3.28;;;19.90;45.80;;;;;;4971628;28;20045;-90
2022/03/23 11:05:02;;;;;;;7.70;4.95;;;20.00;44.60;;;;;;4986451;28;20089;-90
2022/03/23 11:07:46;;;;;;;4.30;3.65;;;20.00;42.90;;;;;;4970265;28;20090;-89
2022/03/23 11:16:02;;;;;;;3.00;2.63;;;19.90;44.00;;;;;;4988553;28;20050;-89
2022/03/23 11:18:28;;;;;;;2.80;2.45;;;20.00;45.60;;;;;;4974276;28;20038;-89
2022/03/23 11:20:56;;;;;;;1.65;1.55;;;20.20;43.90;;;;;;4970476;28;20041;-89
2022/03/23 11:23:31;;;;;;;3.38;2.72;;;20.40;46.10;;;;;;4968649;28;20047;-90
2022/03/23 11:26:01;;;;;;;7.68;4.18;;;20.70;44.70;;;;;;4983230;28;20046;-89
2022/03/23 11:28:40;;;;;;;3.65;1.55;;;20.80;43.80;;;;;;4983207;28;20096;-90
2022/03/23 11:31:15;;;;;;;30.77;5.78;;;20.70;44.30;;;;;;4968369;28;20042;-91
2022/03/23 11:33:45;;;;;;;9.02;4.28;;;20.70;42.20;;;;;;4965098;28;21609;-90
2022/03/23 11:36:19;;;;;;;4.35;3.65;;;20.50;43.50;;;;;;4991105;28;20050;-90
2022/03/23 11:38:53;;;;;;;0.88;0.88;;;20.30;44.30;;;;;;4970209;28;20042;-89
2022/03/23 11:41:28;;;;;;;9.32;2.80;;;20.40;43.60;;;;;;4984489;28;20039;-89
2022/03/23 11:44:23;;;;;;;3.85;2.88;;;20.40;45.80;;;;;;4988155;28;20041;-90
2022/03/23 11:47:19;;;;;;;4.80;3.65;;;20.50;44.70;;;;;;4964569;28;20061;-89
2022/03/23 11:50:02;;;;;;;11.65;3.70;;;20.60;44.10;;;;;;4987179;28;20133;-90
2022/03/23 11:52:33;;;;;;;5.35;3.28;;;20.70;42.00;;;;;;4965107;28;20184;-88
2022/03/23 11:55:42;;;;;;;1.10;0.98;;;20.60;42.50;;;;;;4969070;28;20038;-90
2022/03/23 11:58:18;;;;;;;8.02;3.88;;;20.60;44.30;;;;;;4986731;28;20046;-89
2022/03/23 12:00:55;;;;;;;5.72;3.08;;;20.50;41.40;;;;;;4985449;28;20143;-90
2022/03/23 12:03:40;;;;;;;3.70;2.00;;;20.50;41.60;;;;;;4971189;28;20054;-89
2022/03/23 12:06:11;;;;;;;1.42;1.35;;;20.30;41.80;;;;;;4986193;28;20912;-89
2022/03/23 12:08:50;;;;;;;1.52;1.45;;;20.30;43.20;;;;;;4983454;28;20038;-89
2022/03/23 12:11:38;;;;;;;5.15;3.35;;;20.30;42.80;;;;;;4965780;28;20111;-89
2022/03/23 12:14:15;;;;;;;6.07;3.72;;;20.40;41.10;;;;;;4982161;28;20050;-90
2022/03/23 12:16:50;;;;;;;12.30;2.75;;;20.30;40.20;;;;;;4981771;28;20157;-88
2022/03/23 12:19:24;;;;;;;3.78;2.30;;;20.10;41.70;;;;;;4983071;28;20521;-90
2022/03/23 12:21:57;;;;;;;45.88;4.22;;;20.10;41.70;;;;;;4965214;28;20043;-89
2022/03/23 12:24:45;;;;;;;6.13;3.67;;;20.20;42.30;;;;;;5012296;23;20084;-75
2022/03/23 12:27:20;;;;;;;10.82;3.90;;;20.30;41.40;;;;;;4990211;28;20061;-75
2022/03/23 12:29:49;;;;;;;5.30;2.78;;;20.30;42.10;;;;;;4980673;28;20042;-75
2022/03/23 12:32:15;;;;;;;6.55;3.28;;;20.30;42.20;;;;;;5004468;28;20046;-75
2022/03/23 12:34:45;;;;;;;10.90;6.25;;;20.40;40.90;;;;;;4984496;28;20041;-74
2022/03/23 12:37:16;;;;;;;10.77;3.33;;;20.30;41.00;;;;;;5003904;28;20568;-74
2022/03/23 12:39:53;;;;;;;2.50;2.13;;;20.30;42.20;;;;;;5014848;28;20516;-75
2022/03/23 12:42:45;;;;;;;11.25;4.75;;;20.30;43.00;;;;;;4991022;28;20049;-75
2022/03/23 12:45:21;;;;;;;11.50;4.80;;;20.40;41.40;;;;;;5000191;28;20093;-75
2022/03/23 12:47:59;;;;;;;10.55;4.75;;;20.30;42.60;;;;;;4990647;28;20053;-75
2022/03/23 12:59:14;;;;;;;6.53;4.05;;;19.90;43.20;;;;;;4995668;28;20049;-75
2022/03/23 13:01:40;;;;;;;4.95;3.13;;;19.90;42.30;;;;;;4990193;28;20085;-74
2022/03/23 13:04:05;;;;;;;7.53;3.40;;;19.80;43.30;;;;;;4988868;28;20078;-74
2022/03/23 13:06:36;;;;;;;7.13;0.82;;;19.70;42.80;;;;;;5005225;28;20041;-75
2022/03/23 13:09:08;;;;;;;3.15;2.85;;;19.60;43.10;;;;;;4982130;28;20038;-75
2022/03/23 13:11:35;;;;;;;10.45;3.95;;;19.70;44.10;;;;;;4988263;28;20046;-74
2022/03/23 13:14:01;;;;;;;12.32;3.50;;;19.70;42.60;;;;;;5021689;28;20046;-74
2022/03/23 13:16:27;;;;;;;9.13;3.33;;;19.70;45.00;;;;;;4989341;28;20065;-74
2022/03/23 13:18:55;;;;;;;4.78;2.72;;;19.70;42.30;;;;;;5006449;28;20045;-75
2022/03/23 13:21:24;;;;;;;5.10;2.83;;;19.60;43.60;;;;;;5006546;28;20485;-74
2022/03/23 13:23:56;;;;;;;3.92;2.15;;;19.60;43.50;;;;;;5005966;28;20050;-75
2022/03/23 13:26:24;;;;;;;3.60;2.45;;;19.60;44.20;;;;;;4990567;28;20476;-75
2022/03/23 13:28:55;;;;;;;9.60;3.17;;;19.60;42.90;;;;;;5005236;28;20042;-74
2022/03/23 13:31:31;;;;;;;7.20;3.47;;;19.50;42.70;;;;;;5006404;28;20379;-74
2022/03/23 13:33:58;;;;;;;6.28;1.90;;;19.50;43.00;;;;;;4990700;28;20062;-74
2022/03/23 13:36:24;;;;;;;20.45;1.83;;;19.60;42.60;;;;;;4987695;28;20460;-75
2022/03/23 13:38:53;;;;;;;12.55;3.67;;;19.50;42.70;;;;;;4990481;28;20041;-74
2022/03/23 13:44:07;;;;;;;3.35;1.88;;;19.60;42.50;;;;;;4987304;28;20051;-74
2022/03/23 13:46:33;;;;;;;18.38;4.43;;;19.60;42.90;;;;;;4990071;28;20089;-74
2022/03/23 13:49:10;;;;;;;5.95;3.25;;;19.60;43.10;;;;;;4991487;28;20092;-75